Time;durP1;ratioP1;P1;durP2;ratioP2;P2;SDS_P1;SDS_P2;PMS_P1;PMS_P2;Temp;Humidity;BMP_temperature;BMP_pressure;BME280_temperature;BME280_humidity;BME280_pressure;Samples;Min_cycle;Max_cycle;Signal;HPM_P1;HPM_P2
2023/10/21 00:00:30;;;;;;;17.27;2.97;;;23.00;89.60;;;;;;6244951;23;20000;-76
2023/10/21 00:02:56;;;;;;;15.93;3.33;;;23.00;89.60;;;;;;6244765;23;20008;-76
2023/10/21 00:05:22;;;;;;;14.15;2.85;;;23.00;89.70;;;;;;6245042;23;19996;-75
2023/10/21 00:07:47;;;;;;;21.65;3.42;;;22.90;89.70;;;;;;6244627;23;20095;-73
2023/10/21 00:10:13;;;;;;;14.73;2.88;;;22.90;89.60;;;;;;6244091;22;20024;-76
2023/10/21 00:12:39;;;;;;;14.68;2.80;;;22.90;89.80;;;;;;6243547;23;20014;-75
2023/10/21 00:15:08;;;;;;;15.27;3.22;;;22.90;89.70;;;;;;6243709;23;20058;-75
2023/10/21 00:17:34;;;;;;;16.63;2.88;;;22.90;89.90;;;;;;6243419;23;20430;-77
2023/10/21 00:20:00;;;;;;;21.08;3.10;;;22.90;90.00;;;;;;6243193;23;20001;-76
2023/10/21 00:22:26;;;;;;;16.95;3.42;;;22.90;90.00;;;;;;6244215;23;20008;-75
2023/10/21 00:24:52;;;;;;;15.18;3.17;;;22.90;90.10;;;;;;6243832;23;20047;-76
2023/10/21 00:27:18;;;;;;;13.80;3.40;;;22.90;90.20;;;;;;6243248;23;20008;-75
2023/10/21 00:29:44;;;;;;;18.48;3.42;;;22.90;90.30;;;;;;6243329;23;20058;-75
2023/10/21 00:32:10;;;;;;;21.75;4.22;;;22.90;90.40;;;;;;6243235;23;20050;-74
2023/10/21 00:34:38;;;;;;;14.38;3.55;;;22.80;90.50;;;;;;6243571;23;20071;-76
2023/10/21 00:37:05;;;;;;;17.98;3.50;;;22.80;90.70;;;;;;6243285;23;20000;-75
2023/10/21 00:39:34;;;;;;;15.82;3.40;;;22.70;90.70;;;;;;6242794;23;20068;-75
2023/10/21 00:42:01;;;;;;;14.40;3.00;;;22.70;90.80;;;;;;6243137;23;20071;-75
2023/10/21 00:44:27;;;;;;;18.40;3.13;;;22.70;90.90;;;;;;6242977;23;20073;-75
2023/10/21 00:46:54;;;;;;;17.08;3.58;;;22.70;90.90;;;;;;6243116;23;20074;-76
2023/10/21 00:49:20;;;;;;;13.32;3.28;;;22.70;91.00;;;;;;6243352;23;20000;-76
2023/10/21 00:51:49;;;;;;;19.63;3.28;;;22.60;91.00;;;;;;6244679;23;20075;-74
2023/10/21 00:54:16;;;;;;;19.77;3.35;;;22.60;91.10;;;;;;6244531;23;20449;-75
2023/10/21 00:56:42;;;;;;;19.98;3.85;;;22.70;91.20;;;;;;6244583;23;20379;-74
2023/10/21 00:59:10;;;;;;;17.23;2.80;;;22.70;91.20;;;;;;6244880;23;20011;-75
2023/10/21 01:01:36;;;;;;;15.48;3.35;;;22.70;91.20;;;;;;6245063;23;20000;-76
2023/10/21 01:04:03;;;;;;;15.15;3.35;;;22.70;91.20;;;;;;6244666;23;20499;-74
2023/10/21 01:06:29;;;;;;;19.85;3.17;;;22.70;91.20;;;;;;6244609;23;20023;-76
2023/10/21 01:08:55;;;;;;;18.00;3.30;;;22.70;91.00;;;;;;6245228;23;19996;-76
2023/10/21 01:11:20;;;;;;;16.88;3.22;;;22.70;91.10;;;;;;6167041;23;1835915;-75
2023/10/21 01:13:48;;;;;;;16.60;4.65;;;22.70;91.10;;;;;;6246284;23;20087;-76
2023/10/21 01:16:14;;;;;;;17.77;3.90;;;22.80;91.10;;;;;;6246014;23;20418;-74
2023/10/21 01:18:39;;;;;;;18.67;3.70;;;22.70;91.10;;;;;;6246360;23;20000;-75
2023/10/21 01:21:05;;;;;;;21.13;3.20;;;22.70;91.10;;;;;;6246193;23;20003;-75
2023/10/21 01:23:33;;;;;;;19.33;3.55;;;22.70;91.10;;;;;;6246043;23;20004;-75
2023/10/21 01:26:00;;;;;;;15.73;3.22;;;22.70;91.20;;;;;;6245840;23;20001;-76
2023/10/21 01:28:26;;;;;;;19.00;4.10;;;22.60;91.20;;;;;;6246084;23;20012;-75
2023/10/21 01:30:52;;;;;;;18.08;3.78;;;22.60;91.40;;;;;;6245921;23;20075;-75
2023/10/21 01:33:18;;;;;;;18.00;4.10;;;22.60;91.60;;;;;;6245529;23;20445;-75
2023/10/21 01:35:44;;;;;;;14.63;3.22;;;22.50;91.70;;;;;;6246172;23;20000;-75
2023/10/21 01:38:10;;;;;;;16.50;3.88;;;22.50;91.80;;;;;;6245741;23;20000;-75
2023/10/21 01:40:36;;;;;;;17.08;3.30;;;22.60;92.00;;;;;;6245878;23;20030;-75
2023/10/21 01:43:01;;;;;;;19.75;3.95;;;22.60;92.10;;;;;;6245748;23;20024;-74
2023/10/21 01:45:27;;;;;;;19.73;3.67;;;22.60;92.20;;;;;;6246234;23;20008;-74
2023/10/21 01:47:53;;;;;;;19.30;3.97;;;22.50;92.10;;;;;;6258240;23;20008;-73
2023/10/21 01:50:19;;;;;;;13.38;3.45;;;22.60;92.20;;;;;;6273215;23;19993;-75
2023/10/21 01:52:45;;;;;;;16.38;3.08;;;22.50;92.20;;;;;;6257863;22;20015;-74
2023/10/21 01:55:11;;;;;;;17.33;3.20;;;22.50;92.20;;;;;;6245664;23;20000;-75
2023/10/21 01:57:37;;;;;;;17.40;3.60;;;22.40;92.20;;;;;;6246033;23;20032;-76
2023/10/21 02:00:05;;;;;;;17.20;3.15;;;22.50;92.30;;;;;;6245697;23;20355;-75
2023/10/21 02:02:31;;;;;;;16.08;3.10;;;22.40;92.20;;;;;;6245177;23;20015;-74
2023/10/21 02:04:57;;;;;;;14.27;3.13;;;22.40;92.20;;;;;;6245674;23;20020;-75
2023/10/21 02:07:22;;;;;;;18.42;3.05;;;22.40;92.10;;;;;;6245837;23;20468;-75
2023/10/21 02:09:48;;;;;;;13.88;2.72;;;22.40;91.90;;;;;;6245702;23;20012;-75
2023/10/21 02:12:14;;;;;;;10.65;2.85;;;22.30;91.90;;;;;;6245520;23;20008;-74
2023/10/21 02:14:40;;;;;;;14.73;2.92;;;22.30;92.00;;;;;;6245826;23;20023;-74
2023/10/21 02:17:06;;;;;;;18.95;3.35;;;22.30;92.00;;;;;;6218688;23;20000;-75
2023/10/21 02:19:32;;;;;;;14.35;2.60;;;22.30;92.00;;;;;;6245939;23;19996;-76
2023/10/21 02:21:58;;;;;;;16.48;3.03;;;22.20;92.00;;;;;;6245935;23;20074;-74
2023/10/21 02:24:24;;;;;;;10.50;2.70;;;22.20;92.00;;;;;;6245543;23;20007;-74
2023/10/21 02:26:50;;;;;;;14.27;2.83;;;22.10;92.00;;;;;;6245395;23;20008;-76
2023/10/21 02:29:16;;;;;;;16.40;2.97;;;22.10;92.00;;;;;;6245758;23;20373;-75
2023/10/21 02:31:41;;;;;;;12.70;2.80;;;22.10;92.00;;;;;;6245456;23;20015;-74
2023/10/21 02:34:07;;;;;;;16.45;3.33;;;22.10;92.20;;;;;;6245339;23;20022;-77
2023/10/21 02:36:34;;;;;;;14.90;2.88;;;22.10;92.20;;;;;;6245475;23;20050;-75
2023/10/21 02:39:00;;;;;;;11.70;3.03;;;22.10;92.20;;;;;;6245324;23;20011;-75
2023/10/21 02:41:26;;;;;;;17.50;3.00;;;22.10;92.30;;;;;;6245340;23;20001;-75
2023/10/21 02:43:52;;;;;;;13.88;2.80;;;22.10;92.30;;;;;;6245296;23;20000;-75
2023/10/21 02:46:19;;;;;;;11.85;2.65;;;22.10;92.20;;;;;;6244985;23;20000;-76
2023/10/21 02:48:45;;;;;;;15.00;2.88;;;22.00;92.30;;;;;;6245298;23;20004;-75
2023/10/21 02:51:15;;;;;;;17.38;3.15;;;22.00;92.30;;;;;;6245344;23;20000;-75
2023/10/21 02:53:42;;;;;;;13.80;2.55;;;22.00;92.30;;;;;;6245737;23;20398;-74
2023/10/21 02:56:13;;;;;;;13.77;3.00;;;22.00;92.30;;;;;;6244997;23;20004;-75
2023/10/21 02:58:39;;;;;;;9.57;2.20;;;22.00;92.50;;;;;;6245042;23;20035;-74
2023/10/21 03:01:16;;;;;;;14.30;2.42;;;22.00;92.40;;;;;;6245204;23;20004;-75
2023/10/21 03:03:43;;;;;;;14.45;2.95;;;21.90;92.30;;;;;;6245290;23;20008;-74
2023/10/21 03:06:10;;;;;;;15.30;3.10;;;21.90;92.30;;;;;;6245133;23;20080;-74
2023/10/21 03:08:39;;;;;;;13.30;2.80;;;22.00;92.40;;;;;;6245416;23;20075;-72
2023/10/21 03:11:05;;;;;;;15.73;3.17;;;21.90;92.40;;;;;;6244889;22;20016;-75
2023/10/21 03:13:32;;;;;;;16.45;2.95;;;21.90;92.30;;;;;;6244857;23;20079;-74
2023/10/21 03:15:58;;;;;;;11.80;2.72;;;21.90;92.20;;;;;;6244677;23;20071;-75
2023/10/21 03:18:24;;;;;;;10.50;2.50;;;21.90;92.20;;;;;;6244845;23;20356;-75
2023/10/21 03:20:51;;;;;;;16.48;2.45;;;21.90;92.20;;;;;;6245065;23;20084;-75
2023/10/21 03:23:17;;;;;;;15.73;2.80;;;21.90;92.10;;;;;;6244691;23;20000;-74
2023/10/21 03:25:43;;;;;;;11.68;2.97;;;21.90;92.00;;;;;;6244776;23;20004;-74
2023/10/21 03:28:09;;;;;;;10.65;2.20;;;21.90;92.00;;;;;;6245149;23;20083;-74
2023/10/21 03:30:34;;;;;;;10.18;2.40;;;21.90;91.90;;;;;;6244728;23;20363;-75
2023/10/21 03:33:02;;;;;;;12.90;2.33;;;21.80;91.80;;;;;;6244747;23;20035;-75
2023/10/21 03:35:27;;;;;;;13.40;2.78;;;21.80;91.70;;;;;;6218109;23;20349;-74
2023/10/21 03:37:53;;;;;;;12.00;2.85;;;21.80;91.70;;;;;;6244772;23;20028;-75
2023/10/21 03:40:19;;;;;;;11.10;2.58;;;21.90;91.90;;;;;;6244754;23;19996;-74
2023/10/21 03:42:44;;;;;;;13.45;2.78;;;21.90;91.60;;;;;;6244618;23;20139;-75
2023/10/21 03:45:10;;;;;;;12.98;2.78;;;21.80;91.60;;;;;;6244877;23;20496;-75
2023/10/21 03:47:36;;;;;;;13.15;2.60;;;21.90;91.60;;;;;;6245137;23;20027;-74
2023/10/21 03:50:03;;;;;;;11.90;2.65;;;21.90;91.60;;;;;;6244907;23;20022;-75
2023/10/21 03:52:28;;;;;;;13.10;2.53;;;21.80;91.50;;;;;;6245008;23;20012;-74
2023/10/21 03:54:54;;;;;;;15.75;2.40;;;21.80;91.40;;;;;;6244848;23;20484;-76
2023/10/21 03:57:20;;;;;;;13.85;2.47;;;21.80;91.40;;;;;;6244583;23;20000;-75
2023/10/21 03:59:47;;;;;;;10.65;2.30;;;21.80;91.50;;;;;;6244768;23;20011;-75
2023/10/21 04:02:12;;;;;;;9.43;2.25;;;21.80;91.40;;;;;;6244722;23;20004;-75
2023/10/21 04:04:38;;;;;;;13.43;2.95;;;21.80;91.30;;;;;;6244796;23;20015;-75
2023/10/21 04:07:05;;;;;;;12.93;2.75;;;21.80;91.20;;;;;;6244623;23;20088;-75
2023/10/21 04:09:31;;;;;;;10.00;2.25;;;21.80;91.10;;;;;;6244559;23;20047;-74
2023/10/21 04:11:57;;;;;;;6.40;1.60;;;21.80;90.90;;;;;;6244865;23;20004;-75
2023/10/21 04:14:22;;;;;;;9.27;2.25;;;21.80;90.70;;;;;;6244842;23;20357;-75
2023/10/21 04:16:49;;;;;;;8.32;2.17;;;21.70;90.40;;;;;;6245136;23;20008;-74
2023/10/21 04:19:15;;;;;;;6.80;1.55;;;21.70;90.30;;;;;;6244529;23;20079;-75
2023/10/21 04:21:41;;;;;;;7.32;2.08;;;21.70;90.00;;;;;;6245124;23;20000;-75
2023/10/21 04:24:07;;;;;;;8.57;2.10;;;21.60;90.00;;;;;;6244800;23;20084;-74
2023/10/21 04:26:33;;;;;;;9.23;3.05;;;21.60;89.80;;;;;;6246895;23;20008;-75
2023/10/21 04:28:58;;;;;;;9.50;1.90;;;21.60;89.70;;;;;;6247059;23;20003;-74
2023/10/21 04:31:24;;;;;;;5.72;1.55;;;21.60;89.40;;;;;;6247118;23;20084;-78
2023/10/21 04:33:50;;;;;;;6.93;1.63;;;21.60;88.90;;;;;;6246827;23;20426;-76
2023/10/21 04:36:19;;;;;;;6.05;1.60;;;21.60;89.00;;;;;;6247139;23;20089;-76
2023/10/21 04:38:44;;;;;;;7.93;1.77;;;21.50;88.80;;;;;;6247149;23;20074;-74
2023/10/21 04:41:10;;;;;;;7.93;1.95;;;21.60;88.60;;;;;;6246908;23;20326;-75
2023/10/21 04:43:36;;;;;;;6.50;1.52;;;21.50;88.60;;;;;;6246822;23;20484;-75
2023/10/21 04:46:02;;;;;;;9.52;2.30;;;21.60;88.80;;;;;;6246462;23;20000;-76
2023/10/21 04:48:28;;;;;;;9.07;1.77;;;21.60;88.70;;;;;;6246412;23;20065;-76
2023/10/21 04:50:54;;;;;;;6.88;1.92;;;21.60;88.70;;;;;;6246624;23;20071;-76
2023/10/21 04:53:19;;;;;;;5.55;1.55;;;21.60;88.50;;;;;;6246442;23;20019;-76
2023/10/21 04:55:45;;;;;;;9.57;1.95;;;21.50;88.50;;;;;;6246427;23;20028;-75
2023/10/21 04:58:11;;;;;;;9.40;2.28;;;21.50;88.50;;;;;;6246362;23;20011;-75
2023/10/21 05:00:37;;;;;;;9.52;2.10;;;21.50;88.50;;;;;;6246669;23;20414;-75
2023/10/21 05:03:02;;;;;;;8.68;2.13;;;21.50;88.40;;;;;;6246707;23;20114;-75
2023/10/21 05:05:28;;;;;;;8.27;2.17;;;21.50;88.50;;;;;;6246437;23;20007;-76
2023/10/21 05:07:54;;;;;;;11.30;2.40;;;21.50;88.30;;;;;;6246465;23;20435;-74
2023/10/21 05:10:20;;;;;;;10.18;2.75;;;21.50;88.10;;;;;;6246290;23;20016;-75
2023/10/21 05:12:46;;;;;;;10.25;2.25;;;21.50;88.10;;;;;;6246776;23;20054;-75
2023/10/21 05:15:12;;;;;;;9.05;2.05;;;21.50;88.20;;;;;;6246519;23;20009;-75
2023/10/21 05:17:38;;;;;;;10.40;2.42;;;21.50;88.10;;;;;;6219123;23;20393;-75
2023/10/21 05:20:04;;;;;;;9.32;2.20;;;21.50;88.30;;;;;;6246120;23;20007;-76
2023/10/21 05:22:30;;;;;;;15.57;2.47;;;21.50;88.20;;;;;;6245568;23;20023;-76
2023/10/21 05:24:56;;;;;;;12.77;2.35;;;21.50;88.20;;;;;;6246739;23;20005;-76
2023/10/21 05:27:22;;;;;;;9.88;2.35;;;21.60;88.40;;;;;;6246425;23;20012;-75
2023/10/21 05:29:48;;;;;;;7.40;2.28;;;21.60;88.30;;;;;;6246473;23;20031;-76
2023/10/21 05:32:17;;;;;;;9.13;2.10;;;21.60;88.50;;;;;;6246516;23;20424;-76
2023/10/21 05:34:42;;;;;;;7.55;2.15;;;21.60;88.40;;;;;;6246168;23;20003;-76
2023/10/21 05:37:08;;;;;;;8.30;2.38;;;21.60;88.40;;;;;;6245842;23;20004;-76
2023/10/21 05:39:34;;;;;;;7.05;1.77;;;21.60;88.20;;;;;;6246060;23;19996;-76
2023/10/21 05:41:59;;;;;;;6.10;1.90;;;21.50;88.30;;;;;;6246104;23;20064;-75
2023/10/21 05:44:25;;;;;;;7.97;1.80;;;21.60;88.40;;;;;;6246505;23;20248;-75
2023/10/21 05:46:51;;;;;;;8.13;2.22;;;21.60;88.30;;;;;;6246166;23;20020;-74
2023/10/21 05:49:18;;;;;;;6.50;1.90;;;21.60;88.10;;;;;;6246206;23;19996;-75
2023/10/21 05:51:44;;;;;;;11.35;2.50;;;21.60;88.10;;;;;;6246111;23;20007;-75
2023/10/21 05:54:09;;;;;;;7.97;2.17;;;21.50;88.00;;;;;;6219000;23;20005;-76
2023/10/21 05:56:35;;;;;;;8.52;2.22;;;21.60;88.10;;;;;;6246361;23;20019;-75
2023/10/21 05:59:01;;;;;;;6.50;1.55;;;21.60;87.90;;;;;;6246727;23;20001;-75
2023/10/21 06:01:26;;;;;;;7.53;2.03;;;21.50;88.00;;;;;;6245804;23;20559;-76
2023/10/21 06:03:53;;;;;;;9.80;2.20;;;21.50;88.10;;;;;;6246239;23;20007;-75
2023/10/21 06:06:19;;;;;;;8.13;2.08;;;21.50;88.40;;;;;;6245706;23;20341;-76
2023/10/21 06:08:44;;;;;;;6.43;1.98;;;21.50;88.90;;;;;;6246603;23;20008;-76
2023/10/21 12:34:35;;;;;;;6.78;1.88;;;25.10;70.00;;;;;;6245924;23;20008;-73
2023/10/21 12:39:48;;;;;;;8.40;2.05;;;25.10;70.20;;;;;;6244471;23;20008;-75
2023/10/21 12:42:29;;;;;;;5.90;1.75;;;24.90;69.50;;;;;;6244213;23;20031;-76
2023/10/21 12:44:57;;;;;;;8.85;2.05;;;24.90;69.50;;;;;;6244301;23;20429;-76
2023/10/21 12:47:24;;;;;;;7.32;1.77;;;24.80;69.40;;;;;;6245935;23;20000;-74
2023/10/21 12:49:50;;;;;;;7.07;1.92;;;24.80;68.90;;;;;;6246092;23;20004;-75
2023/10/21 12:52:18;;;;;;;5.72;1.48;;;24.80;68.80;;;;;;6245368;23;20000;-74
2023/10/21 12:54:44;;;;;;;6.30;2.17;;;24.80;67.70;;;;;;6246622;23;20411;-75
2023/10/21 12:57:11;;;;;;;7.13;1.67;;;24.80;67.90;;;;;;6246056;23;20034;-73
2023/10/21 12:59:37;;;;;;;6.95;1.85;;;24.90;67.60;;;;;;6246035;23;20004;-74
2023/10/21 13:02:13;;;;;;;5.43;1.50;;;25.10;67.00;;;;;;6246126;23;20379;-86
2023/10/21 13:04:40;;;;;;;5.85;1.75;;;25.30;66.70;;;;;;6247025;23;20004;-78
2023/10/21 13:07:07;;;;;;;8.85;2.15;;;25.60;66.60;;;;;;6248601;23;20338;-82
2023/10/21 13:09:33;;;;;;;7.35;1.65;;;25.80;66.00;;;;;;6248134;23;19997;-81
2023/10/21 13:12:00;;;;;;;20.50;2.15;;;26.00;65.40;;;;;;6249926;23;20000;-82
2023/10/21 13:14:29;;;;;;;8.25;2.38;;;26.10;65.00;;;;;;6247860;23;20083;-87
2023/10/21 13:16:55;;;;;;;6.97;2.10;;;26.30;64.70;;;;;;6247796;23;20004;-86
2023/10/21 13:19:22;;;;;;;7.78;2.10;;;26.40;64.50;;;;;;6246907;23;20083;-85
2023/10/21 13:21:48;;;;;;;6.22;1.83;;;26.50;64.60;;;;;;6247769;23;20008;-85
2023/10/21 13:24:14;;;;;;;4.30;1.35;;;26.50;63.70;;;;;;6246854;22;20312;-83
2023/10/21 13:26:39;;;;;;;8.48;1.75;;;26.60;63.60;;;;;;6219806;23;20023;-86
2023/10/21 13:29:05;;;;;;;4.78;1.73;;;26.50;63.20;;;;;;6248106;23;20004;-86
2023/10/21 13:31:33;;;;;;;6.22;1.70;;;26.40;63.50;;;;;;6246885;23;20000;-86
2023/10/21 13:33:59;;;;;;;6.32;1.90;;;26.30;63.50;;;;;;6246773;23;19996;-85
2023/10/21 13:36:25;;;;;;;7.50;1.98;;;26.20;63.70;;;;;;6247358;23;20071;-84
2023/10/21 13:38:51;;;;;;;7.65;1.90;;;26.10;64.00;;;;;;6247141;23;20345;-86
2023/10/21 13:41:16;;;;;;;7.78;2.05;;;26.00;64.10;;;;;;6247961;23;20072;-85
2023/10/21 13:43:42;;;;;;;6.50;2.17;;;25.90;64.40;;;;;;6248352;23;20422;-87
2023/10/21 13:46:08;;;;;;;5.63;1.63;;;25.90;64.50;;;;;;6248414;23;20001;-85
2023/10/21 13:48:34;;;;;;;10.75;2.10;;;25.80;64.50;;;;;;6252883;23;20007;-83
2023/10/21 13:51:11;;;;;;;6.85;2.22;;;25.80;64.80;;;;;;6252880;23;19996;-83
2023/10/21 13:53:37;;;;;;;6.93;1.80;;;25.70;64.70;;;;;;6247627;23;20012;-84
2023/10/21 13:56:06;;;;;;;5.88;2.03;;;25.70;65.00;;;;;;6247876;23;20001;-83
2023/10/21 13:58:31;;;;;;;7.75;2.00;;;25.70;65.00;;;;;;6247185;23;20457;-85
2023/10/21 14:01:00;;;;;;;9.93;1.95;;;25.70;65.00;;;;;;6247930;23;19996;-85
2023/10/21 14:03:26;;;;;;;8.73;2.25;;;25.60;64.60;;;;;;6247934;23;20031;-85
2023/10/21 14:05:53;;;;;;;12.40;2.30;;;25.50;65.00;;;;;;6247945;23;19996;-79
2023/10/21 14:08:21;;;;;;;29.58;3.65;;;25.50;65.60;;;;;;6247501;23;20426;-79
2023/10/21 14:10:48;;;;;;;14.05;2.65;;;25.30;66.10;;;;;;6247787;23;20024;-75
2023/10/21 14:13:19;;;;;;;7.43;1.95;;;25.10;66.40;;;;;;6247905;23;20028;-82
2023/10/21 14:15:48;;;;;;;6.85;1.60;;;25.00;66.20;;;;;;6247911;23;20000;-82
2023/10/21 14:18:17;;;;;;;9.82;2.42;;;24.80;66.10;;;;;;6246886;23;20373;-81
2023/10/21 14:20:43;;;;;;;10.02;2.10;;;24.70;66.50;;;;;;6245795;23;20025;-81
2023/10/21 14:23:18;;;;;;;7.35;2.15;;;24.50;66.50;;;;;;6246012;23;20020;-80
2023/10/21 14:25:47;;;;;;;8.88;2.15;;;24.40;66.50;;;;;;6264590;22;20442;-81
2023/10/21 14:28:13;;;;;;;7.78;2.00;;;24.30;67.50;;;;;;6275950;22;20012;-78
2023/10/21 14:30:47;;;;;;;8.48;2.00;;;24.20;67.70;;;;;;6249025;22;20004;-80
2023/10/21 14:33:18;;;;;;;6.00;2.10;;;24.10;68.70;;;;;;6276374;22;20038;-79
2023/10/21 14:35:46;;;;;;;7.85;2.38;;;24.10;67.60;;;;;;6276447;22;19999;-79
2023/10/21 14:38:12;;;;;;;8.85;2.13;;;24.00;68.80;;;;;;6275937;22;20372;-80
2023/10/21 14:40:40;;;;;;;10.43;2.47;;;24.00;68.90;;;;;;6275949;22;20000;-77
2023/10/21 14:43:10;;;;;;;7.50;1.85;;;24.00;68.10;;;;;;6275862;22;20000;-79
2023/10/21 14:45:37;;;;;;;9.45;1.70;;;23.90;68.10;;;;;;6275800;22;20499;-82
2023/10/21 14:48:18;;;;;;;6.50;2.20;;;23.90;68.50;;;;;;6275857;22;20007;-78
2023/10/21 14:50:45;;;;;;;9.32;2.05;;;23.90;68.70;;;;;;6276138;22;20000;-80
2023/10/21 14:53:12;;;;;;;6.13;1.90;;;23.90;69.00;;;;;;6275299;22;20004;-81
2023/10/21 14:55:43;;;;;;;8.30;1.88;;;23.90;68.70;;;;;;6274486;22;20008;-80
2023/10/21 14:58:11;;;;;;;9.00;2.28;;;23.80;68.60;;;;;;6274417;22;20004;-79
2023/10/21 15:00:41;;;;;;;9.38;2.10;;;23.80;69.10;;;;;;6275087;22;20271;-81
2023/10/21 15:03:07;;;;;;;6.97;2.03;;;23.80;68.90;;;;;;6277038;22;20087;-81
2023/10/21 15:05:34;;;;;;;9.85;2.28;;;23.80;68.80;;;;;;6276326;22;20058;-80
2023/10/21 15:08:00;;;;;;;11.30;2.05;;;23.70;68.50;;;;;;6274496;22;20035;-79
2023/10/21 15:10:25;;;;;;;6.57;2.05;;;23.70;68.60;;;;;;6275385;22;19996;-78
2023/10/21 15:12:52;;;;;;;8.10;2.10;;;23.70;68.50;;;;;;6275438;22;20310;-78
2023/10/21 15:15:18;;;;;;;8.25;1.77;;;23.60;68.50;;;;;;6275322;22;19996;-77
2023/10/21 15:17:46;;;;;;;9.45;2.00;;;23.60;68.10;;;;;;6247887;22;20543;-80
2023/10/21 15:20:14;;;;;;;7.85;1.70;;;23.50;68.60;;;;;;6275369;22;19995;-79
2023/10/21 15:22:44;;;;;;;6.22;1.80;;;23.50;69.60;;;;;;6275571;22;20443;-79
2023/10/21 15:25:14;;;;;;;8.82;2.30;;;23.50;70.30;;;;;;6275044;22;20030;-79
2023/10/21 15:27:45;;;;;;;10.07;2.17;;;23.50;69.50;;;;;;6275717;22;20031;-82
2023/10/21 15:30:18;;;;;;;10.52;1.92;;;23.40;69.60;;;;;;6279668;22;20000;-85
2023/10/21 15:32:45;;;;;;;12.77;1.90;;;23.40;69.50;;;;;;6253705;22;20054;-88
2023/10/21 15:35:14;;;;;;;11.98;2.28;;;23.40;69.90;;;;;;6278330;22;20010;-87
2023/10/21 15:37:41;;;;;;;12.60;2.53;;;23.40;69.90;;;;;;6277377;22;19995;-82
2023/10/21 15:40:08;;;;;;;13.65;2.55;;;23.40;70.00;;;;;;6277589;22;20008;-84
2023/10/21 15:42:34;;;;;;;9.65;2.38;;;23.40;70.20;;;;;;6276590;22;20329;-80
2023/10/21 15:45:01;;;;;;;12.55;2.60;;;23.40;71.40;;;;;;6275528;22;20027;-80
2023/10/21 15:47:27;;;;;;;15.82;3.00;;;23.30;72.40;;;;;;6275800;22;20034;-77
2023/10/21 15:49:53;;;;;;;15.07;3.03;;;23.30;73.50;;;;;;6248384;22;20434;-79
2023/10/21 15:52:19;;;;;;;8.07;2.28;;;23.20;73.70;;;;;;6275440;22;19996;-79
2023/10/21 15:54:45;;;;;;;8.30;2.55;;;23.20;73.70;;;;;;6275430;22;20499;-79
2023/10/21 15:57:12;;;;;;;9.98;2.95;;;23.10;74.30;;;;;;6275351;22;20529;-83
2023/10/21 15:59:37;;;;;;;11.68;2.35;;;23.00;74.60;;;;;;6274830;22;20046;-88
2023/10/21 16:02:03;;;;;;;12.77;3.03;;;22.90;74.80;;;;;;6274891;22;20075;-79
2023/10/21 16:04:29;;;;;;;13.25;2.92;;;22.80;75.40;;;;;;6274936;22;20069;-79
2023/10/21 16:06:55;;;;;;;13.80;4.45;;;22.80;75.60;;;;;;6275424;22;20438;-79
2023/10/21 16:09:20;;;;;;;12.82;3.80;;;22.70;75.80;;;;;;6275273;22;20011;-77
2023/10/21 16:11:46;;;;;;;11.07;2.97;;;22.70;76.00;;;;;;6275207;22;19995;-81
2023/10/21 16:14:12;;;;;;;10.27;2.85;;;22.60;76.60;;;;;;6275198;22;20252;-82
2023/10/21 16:16:38;;;;;;;9.75;2.75;;;22.60;76.70;;;;;;6274723;22;20466;-82
2023/10/21 16:19:04;;;;;;;11.07;3.05;;;22.50;76.90;;;;;;6275174;22;20000;-78
2023/10/21 16:21:30;;;;;;;9.18;2.92;;;22.50;77.00;;;;;;6248748;22;20097;-81
2023/10/21 16:23:55;;;;;;;11.18;2.85;;;22.40;77.00;;;;;;6277127;22;20088;-80
2023/10/21 16:26:21;;;;;;;10.35;2.85;;;22.40;77.00;;;;;;6276974;22;20016;-83
2023/10/21 16:28:48;;;;;;;8.85;3.40;;;22.30;77.00;;;;;;6277649;22;20075;-80
2023/10/21 16:31:14;;;;;;;8.48;3.13;;;22.30;77.00;;;;;;6277326;22;20031;-80
2023/10/21 16:33:39;;;;;;;9.38;3.20;;;22.20;77.20;;;;;;6277562;22;20334;-80
2023/10/21 16:36:06;;;;;;;10.45;3.45;;;22.20;77.70;;;;;;6277987;22;20000;-80
2023/10/21 16:38:32;;;;;;;9.65;2.83;;;22.20;77.90;;;;;;6277522;22;20000;-79
2023/10/21 16:40:58;;;;;;;10.20;3.15;;;22.20;78.40;;;;;;6250127;22;20011;-81
2023/10/21 16:43:23;;;;;;;13.75;3.80;;;22.10;77.70;;;;;;6269791;22;20030;-81
2023/10/21 16:45:49;;;;;;;11.02;3.10;;;22.10;77.90;;;;;;6273195;22;20007;-80
2023/10/21 16:48:15;;;;;;;11.75;2.83;;;22.00;78.20;;;;;;6273368;22;20292;-80
2023/10/21 16:50:41;;;;;;;12.93;3.42;;;22.00;78.20;;;;;;6277724;22;20003;-82
2023/10/21 16:53:09;;;;;;;10.73;3.42;;;22.00;78.50;;;;;;6272740;22;20007;-81
2023/10/21 16:55:35;;;;;;;13.38;3.78;;;22.00;78.90;;;;;;6272773;22;20007;-81
2023/10/21 16:58:01;;;;;;;12.30;3.90;;;22.00;79.00;;;;;;6277034;22;20004;-81
2023/10/21 17:00:27;;;;;;;10.23;3.13;;;22.00;79.00;;;;;;6277201;22;20007;-78
2023/10/21 17:02:52;;;;;;;13.85;4.20;;;21.90;79.20;;;;;;6272419;22;20003;-83
2023/10/21 17:05:18;;;;;;;11.57;4.00;;;21.90;79.00;;;;;;6267260;22;20449;-83
2023/10/21 17:07:48;;;;;;;14.85;3.83;;;21.90;79.00;;;;;;6249261;22;20019;-82
2023/10/21 17:10:15;;;;;;;14.05;3.42;;;21.80;79.70;;;;;;6277277;22;20063;-85
2023/10/21 17:12:40;;;;;;;11.48;3.50;;;21.80;79.20;;;;;;6275945;22;20011;-85
2023/10/21 17:15:09;;;;;;;12.68;3.60;;;21.70;79.60;;;;;;6268860;22;20071;-83
2023/10/21 17:17:37;;;;;;;12.68;3.10;;;21.70;80.40;;;;;;6277852;22;20008;-80
2023/10/21 17:20:04;;;;;;;9.32;2.92;;;21.60;79.70;;;;;;6278543;22;20038;-80
2023/10/21 17:22:29;;;;;;;10.00;3.05;;;21.50;80.30;;;;;;6249604;22;20337;-80
2023/10/21 17:24:55;;;;;;;10.00;2.88;;;21.50;80.20;;;;;;6236900;22;20111;-80
2023/10/21 17:27:21;;;;;;;12.52;3.25;;;21.40;80.20;;;;;;6249224;22;20353;-81
2023/10/21 17:29:46;;;;;;;10.30;2.53;;;21.30;80.20;;;;;;6276669;22;20038;-81
2023/10/21 17:32:12;;;;;;;6.90;2.00;;;21.30;80.20;;;;;;6276632;22;20029;-82
2023/10/21 17:34:38;;;;;;;9.18;2.13;;;21.20;80.10;;;;;;6265179;22;20445;-80
2023/10/21 17:37:03;;;;;;;10.23;2.67;;;21.10;80.20;;;;;;6250308;22;20015;-81
2023/10/21 17:39:29;;;;;;;7.70;2.25;;;21.00;80.60;;;;;;6277053;22;20003;-82
2023/10/21 17:41:55;;;;;;;8.20;2.40;;;20.90;80.80;;;;;;6276705;22;20324;-80
2023/10/21 17:44:21;;;;;;;9.48;2.58;;;20.90;80.90;;;;;;6266079;22;20063;-85
2023/10/21 17:46:49;;;;;;;10.32;2.80;;;20.90;81.10;;;;;;6278024;22;20003;-84
2023/10/21 17:49:16;;;;;;;8.73;2.78;;;20.90;81.30;;;;;;6278657;22;20003;-78
2023/10/21 17:51:41;;;;;;;6.93;2.85;;;21.00;81.50;;;;;;6276371;22;19996;-76
2023/10/21 17:54:09;;;;;;;6.57;2.72;;;21.10;81.40;;;;;;6268409;22;20436;-79
2023/10/21 17:56:38;;;;;;;10.48;2.50;;;21.10;81.10;;;;;;6278509;22;19996;-80
2023/10/21 17:59:05;;;;;;;6.18;2.58;;;21.20;81.50;;;;;;6276327;22;20027;-81
2023/10/21 18:01:36;;;;;;;7.07;2.20;;;21.20;80.70;;;;;;6275253;22;20061;-81
2023/10/21 18:04:02;;;;;;;7.40;2.67;;;21.20;80.80;;;;;;6264747;22;20311;-80
2023/10/21 18:06:28;;;;;;;8.10;2.47;;;21.20;80.90;;;;;;6275420;22;20011;-82
2023/10/21 18:08:55;;;;;;;6.90;3.00;;;21.20;81.00;;;;;;6248547;22;20028;-80
2023/10/21 18:11:21;;;;;;;9.10;2.63;;;21.10;81.10;;;;;;6275436;22;19999;-81
2023/10/21 18:13:46;;;;;;;6.03;2.40;;;21.10;81.30;;;;;;6266414;22;20428;-80
2023/10/21 18:16:14;;;;;;;7.57;2.83;;;21.00;81.70;;;;;;6246328;22;20426;-84
2023/10/21 18:18:41;;;;;;;7.60;2.50;;;21.00;81.60;;;;;;6274965;22;20063;-75
2023/10/21 18:21:06;;;;;;;8.73;3.58;;;20.90;81.80;;;;;;6275850;22;19995;-79
2023/10/21 18:23:32;;;;;;;15.13;9.40;;;20.90;82.10;;;;;;6266702;22;20026;-81
2023/10/21 18:26:03;;;;;;;8.85;4.22;;;20.90;82.20;;;;;;6272649;22;20127;-84
2023/10/21 18:28:30;;;;;;;6.88;3.35;;;20.90;82.40;;;;;;6275466;22;20008;-78
2023/10/21 18:30:55;;;;;;;8.48;3.10;;;20.80;82.70;;;;;;6275674;22;20004;-79
2023/10/21 18:33:21;;;;;;;9.32;3.28;;;20.80;82.90;;;;;;6266875;22;20691;-79
2023/10/21 18:35:47;;;;;;;9.05;2.85;;;20.70;83.10;;;;;;6272356;22;20422;-79
2023/10/21 18:38:12;;;;;;;9.90;3.17;;;20.70;83.60;;;;;;6274895;22;20476;-74
2023/10/21 18:40:38;;;;;;;9.23;3.45;;;20.70;83.30;;;;;;6274225;22;20030;-74
2023/10/21 18:43:04;;;;;;;9.68;3.28;;;20.60;83.60;;;;;;6267001;22;20011;-75
2023/10/21 18:45:29;;;;;;;9.07;3.60;;;20.60;83.90;;;;;;6267910;22;20322;-75
2023/10/21 18:47:55;;;;;;;10.50;3.15;;;20.50;84.10;;;;;;6274784;22;20015;-74
2023/10/21 18:50:21;;;;;;;8.32;3.42;;;20.50;84.40;;;;;;6275671;22;19996;-75
2023/10/21 18:52:46;;;;;;;9.90;3.05;;;20.50;84.60;;;;;;6272935;22;20384;-74
2023/10/21 18:55:13;;;;;;;6.80;3.10;;;20.50;84.60;;;;;;6266268;22;20019;-75
2023/10/21 18:57:41;;;;;;;9.13;3.00;;;20.40;84.70;;;;;;6275591;22;19999;-75
2023/10/21 19:00:17;;;;;;;10.13;4.60;;;20.40;84.80;;;;;;6275479;22;20026;-75
2023/10/21 19:02:43;;;;;;;7.50;3.70;;;20.40;85.10;;;;;;6272416;22;20003;-73